Pescara - LIBP

Metar : METAR LIBP 281950Z AUTO 25002KT 4900 BR NCD 18/17 Q1019=

Taf : TAF LIBP 281700Z 2818/2918 VRB05KT 9999 SCT015=

 Scopri come leggere i bollettini codificati...


Storico

LIBP 281950Z AUTO 25002KT 4900 BR NCD 18/17 Q1019
LIBP 281920Z AUTO 25002KT 7000 NCD 20/18 Q1019
LIBP 281850Z AUTO 29001KT 8000 NCD 20/18 Q1019
LIBP 281820Z AUTO VRB01KT 9000 NCD 21/19 Q1019
LIBP 281750Z AUTO 23002KT 9999 NCD 21/19 Q1019
LIBP 281720Z AUTO VRB02KT 9999 NCD 22/19 Q1019
LIBP 281650Z AUTO 03005KT 9999 FEW014/// 22/19 Q1018
LIBP 281620Z AUTO 01005KT 340V080 9999 SCT014/// 22/19 Q1018
LIBP 281550Z AUTO 02007KT 9999 BKN014/// 22/19 Q1018
LIBP 281520Z AUTO 01008KT 350V050 9999 SCT015/// 23/19 Q1018
LIBP 281450Z AUTO 03009KT 350V060 9999 FEW016/// 23/19 Q1018
LIBP 281420Z AUTO 05010KT 010V070 9999 NCD 24/19 Q1018
LIBP 281350Z AUTO 04009KT 360V060 9999 NCD 24/18 Q1018
LIBP 281320Z AUTO 05010KT 020V080 9999 NCD 24/18 Q1018
LIBP 281250Z AUTO 04009KT 010V070 9999 NCD 24/18 Q1018
LIBP 281220Z AUTO 04010KT 9999 NCD 25/18 Q1019
LIBP 281150Z AUTO 04009KT 010V070 9999 NCD 25/18 Q1019
LIBP 281120Z AUTO 03009KT 340V060 9999 NCD 25/18 Q1019
LIBP 281050Z AUTO 03011KT 9999 FEW050/// 24/17 Q1019
LIBP 281020Z AUTO 03009KT 9999 NCD 24/17 Q1019
LIBP 280950Z AUTO 03007KT 9999 SCT034/// 24/17 Q1019
LIBP 280920Z AUTO 03008KT 340V050 9999 BKN040/// 23/18 Q1019
LIBP 280850Z AUTO 01006KT 320V050 9999 SCT035/// 23/17 Q1019
LIBP 280820Z AUTO 35007KT 320V030 9999 FEW019/// 23/18 Q1019
LIBP 280750Z AUTO 33006KT 290V010 9999 FEW018/// BKN035/// 22/18 Q1019
LIBP 280720Z AUTO 34005KT 280V020 9999 BKN033/// 22/18 Q1019
LIBP 280650Z AUTO 34005KT 300V020 9999 OVC030/// 21/18 Q1019
LIBP 280620Z AUTO 32004KT 270V010 9999 FEW014/// BKN030/// 21/19 Q1019
LIBP 280550Z AUTO 34005KT 300V010 9999 BKN014/// 21/19 Q1018
LIBP 280520Z AUTO 35005KT 300V020 9999 BKN012/// 21/19 Q1018
LIBP 280450Z AUTO 34003KT 300V020 9000 BKN012/// 21/20 Q1018
LIBP 280420Z AUTO 35006KT 330V040 9999 BKN013/// BKN041/// 21/20 Q1018
LIBP 280350Z AUTO 36005KT 330V030 9000 OVC011/// 21/20 Q1018
LIBP 280320Z AUTO 34003KT 310V020 6000 -RA OVC009/// 21/20 Q1018 RERA
LIBP 280250Z AUTO 32006KT 260V350 6000 +RA BKN009/// OVC046/// 21/20 Q1018
LIBP 280220Z AUTO 36004KT 320V030 9999 BKN013/// OVC045/// 21/20 Q1018 RERA
LIBP 280150Z AUTO 02006KT 350V050 9999 OVC013/// 22/19 Q1018
LIBP 280120Z AUTO 36005KT 330V030 9999 BKN013/// BKN038/// 22/19 Q1018
LIBP 280050Z AUTO 33004KT 300V360 9999 BKN011/// BKN026/// 22/20 Q1018
LIBP 280020Z AUTO 33003KT 290V010 9999 OVC011/// 22/20 Q1018
LIBP 272350Z AUTO VRB02KT 9999 OVC011/// 22/20 Q1018
LIBP 272320Z AUTO VRB02KT 9999 SCT012/// SCT038/// BKN042/// 22/20 Q1018
LIBP 272250Z AUTO VRB02KT 9999 FEW012/// OVC046/// 22/20 Q1018
LIBP 272220Z AUTO VRB02KT 9999 BKN012/// BKN047/// 22/20 Q1018
LIBP 272150Z AUTO VRB02KT 9999 BKN011/// BKN039/// BKN047/// 22/20 Q1018
LIBP 272120Z AUTO VRB02KT 9999 FEW012/// BKN038/// 22/20 Q1018
LIBP 272050Z AUTO 36004KT 330V050 9999 FEW011/// BKN034/// 23/20 Q1018
LIBP 272020Z AUTO VRB02KT 9999 FEW012/// OVC014/// 22/20 Q1018
LIBP 271950Z AUTO 34004KT 310V010 9999 BKN013/// BKN042/// 22/20 Q1018
LIBP 271920Z AUTO 32003KT 270V350 9999 SCT011/// BKN031/// 22/19 Q1017
LIBP 271850Z AUTO 31003KT 280V340 9999 BKN012/// 22/20 Q1017
LIBP 271820Z AUTO VRB02KT 9999 FEW012/// SCT027/// BKN049/// 22/20 Q1017
LIBP 271750Z AUTO 34005KT 310V030 9999 FEW012/// BKN048/// 23/20 Q1017
LIBP 271720Z AUTO 35004KT 320V020 9999 FEW011/// OVC038/// 23/20 Q1017
LIBP 271650Z AUTO 02006KT 9999 FEW011/// BKN044/// 23/20 Q1017
LIBP 271620Z AUTO 36006KT 9999 FEW011/// SCT036/// 23/20 Q1017
LIBP 271550Z AUTO 01006KT 340V040 9999 SCT011/// 23/20 Q1017
LIBP 271520Z AUTO 01007KT 340V040 9999 FEW010/// SCT017/// 24/20 Q1016
LIBP 271450Z AUTO 02009KT 9999 BKN011/// 24/20 Q1016
LIBP 271420Z AUTO 02009KT 9999 BKN010/// 23/20 Q1016
LIBP 271350Z AUTO 02008KT 350V050 9999 -RA BKN009/// 23/21 Q1016
LIBP 271320Z AUTO 02010KT 350V050 9999 BKN010/// 24/21 Q1016
LIBP 271250Z AUTO 03010KT 9999 BKN010/// 25/21 Q1016
LIBP 271220Z AUTO 04010KT 360V070 9999 BKN011/// 25/20 Q1016
LIBP 271150Z AUTO 03010KT 9999 BKN011/// 25/21 Q1016
LIBP 271120Z AUTO 03009KT 350V060 9999 BKN010/// 25/21 Q1017
LIBP 271050Z AUTO 02009KT 330V060 9999 BKN011/// 25/21 Q1017
LIBP 271020Z AUTO 04010KT 360V060 9999 SCT012/// 25/20 Q1017
LIBP 270950Z AUTO 04010KT 9999 FEW011/// SCT210/// 25/20 Q1017
LIBP 270920Z AUTO 03008KT 9999 FEW010/// SCT220/// 25/20 Q1017
LIBP 270850Z AUTO 05007KT 020V080 9999 NCD 24/20 Q1016
LIBP 270820Z AUTO 04005KT 9999 NCD 24/20 Q1017
LIBP 270750Z AUTO VRB02KT 9999 SCT130/// 23/19 Q1017
LIBP 270720Z AUTO VRB01KT 9999 SCT130/// 23/19 Q1017
LIBP 270650Z AUTO VRB01KT 9999 FEW130/// 21/19 Q1017
LIBP 270620Z AUTO VRB01KT 9999 FEW130/// BKN210/// 20/18 Q1017
LIBP 270550Z AUTO VRB01KT 9999 FEW130/// 19/18 Q1017
LIBP 270520Z AUTO VRB02KT 9999 FEW250/// 19/18 Q1016
LIBP 270450Z AUTO 20005KT 190V250 9999 FEW130/// 18/17 Q1017
LIBP 270420Z AUTO 21004KT 9999 FEW140/// 18/17 Q1017
LIBP 270350Z AUTO VRB01KT 9999 SCT130/// 18/17 Q1016
LIBP 270320Z AUTO 01003KT 330V040 9999 FEW140/// 20/19 Q1017
LIBP 270250Z AUTO 02004KT 320V060 9999 NCD 19/18 Q1017
LIBP 270220Z AUTO VRB02KT 9999 NCD 18/16 Q1017
LIBP 270150Z AUTO VRB01KT 9999 NCD 18/17 Q1017
LIBP 270120Z AUTO VRB02KT 9999 NCD 19/17 Q1017
LIBP 270050Z AUTO 24004KT 210V280 9999 NCD 19/17 Q1018
LIBP 270020Z AUTO VRB02KT 9999 NCD 19/17 Q1018
LIBP 262350Z AUTO 25004KT 9999 NCD 19/17 Q1018
LIBP 262320Z AUTO 16002KT 9999 NCD 20/17 Q1018
LIBP 262250Z AUTO VRB01KT 9999 NCD 20/17 Q1018
LIBP 262220Z AUTO 25003KT 210V020 9999 FEW015/// 20/18 Q1019
LIBP 262150Z AUTO 24005KT 9999 BKN013/// 21/18 Q1019
LIBP 262120Z AUTO 24005KT 9999 BKN012/// BKN140/// 22/19 Q1019
LIBP 262050Z AUTO 30003KT 250V010 9999 SCT014/// BKN140/// 23/19 Q1019
LIBP 262020Z AUTO 31004KT 270V360 9999 BKN140/// 23/18 Q1019
LIBP 261950Z AUTO 34004KT 300V050 9999 NCD 23/19 Q1019
LIBP 261920Z AUTO 28003KT 250V340 9999 BKN190/// 22/19 Q1018
LIBP 261850Z AUTO 10003KT 060V120 9999 OVC170/// 23/19 Q1017
LIBP 261820Z AUTO 07005KT 9999 OVC160/// 24/18 Q1017
LIBP 261750Z AUTO 02006KT 9999 OVC160/// 24/18 Q1017
LIBP 261720Z AUTO 06004KT 020V110 9999 BKN150/// OVC180/// 24/17 Q1017
LIBP 261650Z AUTO VRB03KT 9999 BKN150/// 25/16 Q1017
LIBP 261620Z AUTO 04005KT 9999 FEW160/// BKN180/// 25/16 Q1017
LIBP 261550Z AUTO 06005KT 360V140 9999 FEW150/// SCT170/// 25/16 Q1017
LIBP 261520Z AUTO 06006KT 9999 FEW150/// 26/16 Q1017
LIBP 261450Z AUTO 10004KT 050V160 9999 NCD 26/16 Q1018
LIBP 261420Z AUTO 08008KT 9999 BKN160/// 26/17 Q1018
LIBP 261350Z AUTO 06006KT 030V090 9999 SCT180/// 25/18 Q1019
LIBP 261320Z AUTO 05006KT 020V080 9999 NCD 25/18 Q1020
LIBP 261250Z AUTO 07007KT 030V120 9999 FEW210/// 25/18 Q1020
LIBP 261220Z AUTO 06006KT 010V100 9999 NCD 25/17 Q1020
LIBP 261150Z AUTO 05008KT 9999 NCD 24/17 Q1021
LIBP 261120Z AUTO 04008KT 9999 NCD 25/17 Q1021
LIBP 261050Z AUTO 05007KT 010V090 9999 NCD 25/17 Q1021
LIBP 261020Z AUTO 07007KT 020V110 9999 NCD 26/18 Q1021
LIBP 260950Z AUTO 07006KT 9999 NCD 25/17 Q1021
LIBP 260920Z AUTO 05006KT 360V080 9999 NCD 25/17 Q1021
LIBP 260850Z AUTO VRB03KT 9999 NCD 24/15 Q1021
LIBP 260820Z AUTO 27003KT 210V330 9999 NCD 23/14 Q1021
LIBP 260750Z AUTO VRB02KT 9999 NCD 21/14 Q1021
LIBP 260720Z AUTO 22004KT 9999 BKN160/// 19/14 Q1021
LIBP 260650Z AUTO 23003KT 190V260 9999 OVC170/// 18/14 Q1021
LIBP 260620Z AUTO 24004KT 9999 FEW013/// BKN170/// 17/14 Q1021
LIBP 260550Z AUTO 23004KT 9999 FEW180/// 16/14 Q1021
LIBP 260520Z AUTO 23004KT 9999 NCD 15/14 Q1021
LIBP 260450Z AUTO 22004KT 9999 NCD 15/14 Q1021
LIBP 260420Z AUTO 20006KT 9999 NCD 15/14 Q1021
LIBP 260350Z AUTO 22004KT 9999 NCD 15/14 Q1021
LIBP 260320Z AUTO 22004KT 9999 NCD 16/14 Q1021
LIBP 260250Z AUTO 22005KT 9999 NCD 16/14 Q1021
LIBP 260220Z AUTO 22004KT 200V260 9999 NCD 16/14 Q1021
LIBP 260150Z AUTO 25003KT 9999 NCD 16/15 Q1021
LIBP 260120Z AUTO 19003KT 9999 NCD 16/14 Q1021
LIBP 260050Z AUTO 23004KT 9999 NCD 16/15 Q1021
LIBP 260020Z AUTO 22003KT 9999 NCD 17/15 Q1021
LIBP 252350Z AUTO 22005KT 9999 NCD 16/15 Q1021
LIBP 252320Z AUTO 22003KT 9999 NCD 18/15 Q1021
LIBP 252250Z AUTO 26002KT 9999 NCD 18/15 Q1021
LIBP 252220Z AUTO 23004KT 9999 NCD 17/15 Q1021
LIBP 252150Z AUTO 25003KT 9999 NCD 18/16 Q1021
LIBP 252120Z AUTO 24003KT 9999 NCD 19/16 Q1021
LIBP 252050Z AUTO 21004KT 9999 NCD 18/16 Q1021
LIBP 252020Z AUTO 20003KT 120V220 9999 NCD 19/17 Q1021
LIBP 251950Z AUTO VRB02KT 9999 NCD 20/18 Q1021
LIBP 251920Z AUTO VRB02KT 9999 NCD 21/18 Q1021
LIBP 251850Z AUTO 06003KT 9999 NCD 22/18 Q1021
LIBP 251820Z AUTO VRB02KT 9999 NCD 22/18 Q1021
LIBP 251750Z AUTO 06004KT 9999 NCD 22/18 Q1021
LIBP 251720Z AUTO 06004KT 9999 -RA NCD 22/18 Q1021
LIBP 251650Z AUTO 09004KT 9999 NCD 23/18 Q1021
LIBP 251620Z AUTO 07005KT 9999 NCD 24/18 Q1020
LIBP 251550Z AUTO 08005KT 040V100 9999 NCD 24/18 Q1020
LIBP 251520Z AUTO 06007KT 030V090 9999 NCD 24/17 Q1020
LIBP 251450Z AUTO 08008KT 9999 NCD 25/15 Q1020
LIBP 251420Z AUTO 08008KT 040V110 9999 NCD 25/15 Q1020
LIBP 251350Z AUTO 09009KT 060V120 9999 FEW180/// 26/13 Q1020
LIBP 251320Z AUTO 08009KT 060V120 9999 NCD 26/14 Q1020
LIBP 251250Z AUTO 07010KT 040V100 9999 NCD 26/14 Q1020
LIBP 251220Z AUTO 07008KT 040V110 9999 NCD 25/14 Q1021
LIBP 251150Z AUTO 06008KT 030V090 9999 NCD 25/16 Q1021
LIBP 251120Z AUTO 07009KT 030V100 9999 NCD 25/14 Q1021
LIBP 251050Z AUTO 06008KT 030V090 9999 NCD 25/15 Q1021
LIBP 251020Z AUTO 07008KT 9999 NCD 25/15 Q1021
LIBP 250950Z AUTO 06007KT 030V090 9999 NCD 25/13 Q1021
LIBP 250920Z AUTO 04003KT 330V100 9999 NCD 25/12 Q1021
LIBP 250850Z AUTO VRB02KT 9999 NCD 24/12 Q1021
LIBP 250820Z AUTO VRB02KT 9999 NCD 24/12 Q1021
LIBP 250750Z AUTO 23003KT 170V270 9999 NCD 21/11 Q1021
LIBP 250720Z AUTO 25004KT 9999 NCD 19/11 Q1021
LIBP 250650Z AUTO 21005KT 9999 NCD 18/11 Q1021
LIBP 250620Z AUTO 21005KT 9999 NCD 16/11 Q1021
LIBP 250550Z AUTO 21004KT 9999 NCD 14/11 Q1021
LIBP 250520Z AUTO 21005KT 9999 NCD 12/10 Q1021
LIBP 250450Z AUTO 21005KT 9999 NCD 12/10 Q1020
LIBP 250420Z AUTO 22004KT 9999 NCD 12/10 Q1020
LIBP 250350Z AUTO 21005KT 9999 NCD 12/10 Q1020
LIBP 250320Z AUTO 22004KT 9999 NCD 13/10 Q1020
LIBP 250250Z AUTO 22005KT 9999 NCD 13/10 Q1020

Informazioni elaborate utilizzando, tra l’altro, dati e prodotti del Servizio Meteorologico dell’Aeronautica Militare pubblicati sul sito www.meteoam.it e della National Oceanic and Atmospheric Administration (NOAA)

Ultimi caricamenti...


HZ-SKY4 Sky Prime A319CJ

 


D-CEER. Beech B200GT King Air 250

 


GF-412 AW 139A (VOLPE412) MM81959

Questo sito non utilizza cookie di profilazione. Il sito utilizza cookie tecnici, di analisi anonima di prima parte e di terze parti per servizi di social network.